createdAt,value
2022-08-21T00:00:15.314Z,100521.97
2022-08-21T00:03:17.950Z,100523.44
2022-08-21T00:06:21.070Z,100519.09
2022-08-21T00:09:25.000Z,100519.72
2022-08-21T00:12:28.191Z,100515.31
2022-08-21T00:15:33.270Z,100506.31
2022-08-21T00:18:35.872Z,100503.41
2022-08-21T00:21:38.552Z,100510.03
2022-08-21T00:24:42.470Z,100501.66
2022-08-21T00:27:45.478Z,100506.25
2022-08-21T00:30:48.327Z,100505.22
2022-08-21T00:33:50.940Z,100502.16
2022-08-21T00:36:53.431Z,100504.38
2022-08-21T00:39:57.532Z,100499.72
2022-08-21T00:43:00.391Z,100497.19
2022-08-21T00:46:05.220Z,100506.31
2022-08-21T00:49:08.555Z,100498.28
2022-08-21T00:52:14.885Z,100489.47
2022-08-21T00:55:19.535Z,100487.25
2022-08-21T00:58:22.620Z,100469.53
2022-08-21T01:01:25.331Z,100474.94
2022-08-21T01:04:28.533Z,100475.13
2022-08-21T01:07:31.241Z,100474.44
2022-08-21T01:10:36.148Z,100475.28
2022-08-21T01:13:47.420Z,100473.69
2022-08-21T01:16:53.173Z,100475.13
2022-08-21T01:19:59.467Z,100487.91
2022-08-21T01:23:04.899Z,100485.41
2022-08-21T01:26:08.432Z,100482.69
2022-08-21T01:29:16.590Z,100482.97
2022-08-21T01:32:21.140Z,100481.44
2022-08-21T01:35:24.312Z,100478.44
2022-08-21T01:38:28.291Z,100492.03
2022-08-21T01:41:31.513Z,100478.94
2022-08-21T01:44:34.477Z,100481.25
2022-08-21T01:47:37.698Z,100479.59
2022-08-21T01:50:40.259Z,100491.63
2022-08-21T01:53:44.082Z,100489.47
2022-08-21T01:56:49.292Z,100505.16
2022-08-21T01:59:51.852Z,100495.69
2022-08-21T02:02:54.988Z,100500.16
2022-08-21T02:05:57.803Z,100502.97
2022-08-21T02:09:01.620Z,100492.78
2022-08-21T02:12:04.712Z,100487.19
2022-08-21T02:15:08.925Z,100492.81
2022-08-21T02:18:11.515Z,100493.41
2022-08-21T02:21:14.081Z,100498.88
2022-08-21T02:24:17.894Z,100491.13
2022-08-21T02:27:26.162Z,100496.69
2022-08-21T02:30:32.924Z,100498.75
2022-08-21T02:33:35.571Z,100491.31
2022-08-21T02:36:38.200Z,100492.50
2022-08-21T02:39:42.109Z,100496.91
2022-08-21T02:42:44.856Z,100492.63
2022-08-21T02:45:49.152Z,100492.41
2022-08-21T02:48:51.631Z,100480.97
2022-08-21T02:51:54.252Z,100485.38
2022-08-21T02:54:58.096Z,100489.84
2022-08-21T02:58:01.891Z,100491.16
2022-08-21T03:01:05.280Z,100485.81
2022-08-21T03:04:07.764Z,100492.38
2022-08-21T03:07:11.265Z,100490.19
2022-08-21T03:10:15.923Z,100484.25
2022-08-21T03:13:20.234Z,100485.84
2022-08-21T03:16:22.842Z,100490.28
2022-08-21T03:19:25.332Z,100497.84
2022-08-21T03:22:28.537Z,100489.84
2022-08-21T03:25:39.918Z,100495.03
2022-08-21T03:28:43.474Z,100537.84
2022-08-21T03:31:46.104Z,100500.38
2022-08-21T03:34:49.095Z,100498.69
2022-08-21T03:37:51.661Z,100497.59
2022-08-21T03:40:55.559Z,100496.09
2022-08-21T03:43:58.054Z,100492.56
2022-08-21T03:47:00.573Z,100496.09
2022-08-21T03:50:03.182Z,100495.22
2022-08-21T03:53:05.727Z,100493.53
2022-08-21T03:56:09.725Z,100488.47
2022-08-21T03:59:12.289Z,100499.47
2022-08-21T04:02:18.427Z,100498.28
2022-08-21T04:05:28.885Z,100500.56
2022-08-21T04:08:31.563Z,100491.00
2022-08-21T04:11:35.423Z,100495.13
2022-08-21T04:14:38.152Z,100495.22
2022-08-21T04:17:40.755Z,100502.38
2022-08-21T04:20:48.222Z,100502.28
2022-08-21T04:23:52.926Z,100498.31
2022-08-21T04:26:56.773Z,100500.25
2022-08-21T04:29:59.251Z,100507.53
2022-08-21T04:33:01.846Z,100499.06
2022-08-21T04:36:09.882Z,100510.94
2022-08-21T04:39:12.567Z,100505.59
2022-08-21T04:42:16.388Z,100495.06
2022-08-21T04:45:23.023Z,100499.44
2022-08-21T04:48:26.045Z,100492.03
2022-08-21T04:51:33.763Z,100499.81
2022-08-21T04:54:36.484Z,100502.47
2022-08-21T04:57:49.104Z,100512.78
2022-08-21T05:00:55.830Z,100504.47
2022-08-21T05:04:00.979Z,100508.81
2022-08-21T05:07:07.903Z,100507.00
2022-08-21T05:10:12.492Z,100511.59
2022-08-21T05:13:18.425Z,100508.69
2022-08-21T05:16:36.687Z,100510.75
2022-08-21T05:19:40.889Z,100505.91
2022-08-21T05:22:43.819Z,100507.97
2022-08-21T05:25:46.310Z,100506.75
2022-08-21T05:28:50.113Z,100506.88
2022-08-21T05:31:52.714Z,100503.00
2022-08-21T05:34:55.804Z,100500.47
2022-08-21T05:37:58.888Z,100504.06
2022-08-21T05:41:01.502Z,100505.19
2022-08-21T05:44:10.282Z,100513.41
2022-08-21T05:47:13.664Z,100515.59
2022-08-21T05:50:16.178Z,100513.66
2022-08-21T05:53:20.606Z,100520.69
2022-08-21T05:56:23.155Z,100521.03
2022-08-21T05:59:28.577Z,100522.50
2022-08-21T06:02:31.989Z,100522.59
2022-08-21T06:05:37.080Z,100525.03
2022-08-21T06:08:40.099Z,100527.69
2022-08-21T06:11:42.655Z,100527.56
2022-08-21T06:14:46.531Z,100529.50
2022-08-21T06:17:49.027Z,100528.25
2022-08-21T06:20:51.545Z,100537.47
2022-08-21T06:23:54.043Z,100537.09
2022-08-21T06:26:56.829Z,100532.75
2022-08-21T06:30:00.668Z,100541.72
2022-08-21T06:33:03.893Z,100543.13
2022-08-21T06:36:06.792Z,100541.88
2022-08-21T06:39:16.613Z,100554.38
2022-08-21T06:42:28.812Z,100547.69
2022-08-21T06:45:32.671Z,100544.38
2022-08-21T06:48:35.220Z,100544.06
2022-08-21T06:51:37.727Z,100535.59
2022-08-21T06:54:41.590Z,100540.88
2022-08-21T06:57:44.091Z,100546.50
2022-08-21T07:01:00.613Z,100544.66
2022-08-21T07:04:04.000Z,100551.63
2022-08-21T07:07:06.519Z,100551.75
2022-08-21T07:10:09.904Z,100560.00
2022-08-21T07:13:24.671Z,100552.56
2022-08-21T07:16:28.495Z,100548.78
2022-08-21T07:19:31.113Z,100552.03
2022-08-21T07:22:33.931Z,100550.50
2022-08-21T07:25:36.828Z,100544.00
2022-08-21T07:28:39.486Z,100548.91
2022-08-21T07:31:43.405Z,100551.78
2022-08-21T07:34:46.028Z,100555.66
2022-08-21T07:37:49.210Z,100550.03
2022-08-21T07:40:54.410Z,100561.69
2022-08-21T07:43:58.171Z,100559.72
2022-08-21T07:47:02.242Z,100555.19
2022-08-21T07:50:05.439Z,100556.88
2022-08-21T07:53:08.371Z,100556.44
2022-08-21T07:56:12.044Z,100551.22
2022-08-21T07:59:14.644Z,100555.03
2022-08-21T08:02:25.668Z,100562.50
2022-08-21T08:05:31.933Z,100563.59
2022-08-21T08:08:35.028Z,100557.84
2022-08-21T08:11:41.044Z,100567.19
2022-08-21T08:14:43.819Z,100563.13
2022-08-21T08:17:47.838Z,100556.88
2022-08-21T08:20:50.428Z,100557.59
2022-08-21T08:23:53.168Z,100562.38
2022-08-21T08:26:57.938Z,100566.47
2022-08-21T08:30:00.935Z,100569.16
2022-08-21T08:33:04.754Z,100570.41
2022-08-21T08:36:14.087Z,100566.78
2022-08-21T08:39:26.481Z,100573.06
2022-08-21T08:42:34.888Z,100581.16
2022-08-21T08:45:41.547Z,100574.13
2022-08-21T08:48:53.133Z,100578.56
2022-08-21T08:52:02.215Z,100577.91
2022-08-21T08:55:08.058Z,100563.34
2022-08-21T08:58:13.321Z,100561.88
2022-08-21T09:01:18.909Z,100554.13
2022-08-21T09:04:26.848Z,100552.47
2022-08-21T09:07:39.103Z,100558.09
2022-08-21T09:10:52.926Z,100560.44
2022-08-21T09:14:06.327Z,100558.50
2022-08-21T09:17:21.513Z,100558.81
2022-08-21T09:20:36.061Z,100565.44
2022-08-21T09:23:50.064Z,100565.19
2022-08-21T09:27:03.938Z,100565.72
2022-08-21T09:30:08.615Z,100567.22
2022-08-21T09:33:14.643Z,100566.25
2022-08-21T09:36:27.918Z,100566.91
2022-08-21T09:39:33.069Z,100571.50
2022-08-21T09:42:42.924Z,100567.03
2022-08-21T09:45:47.048Z,100565.84
2022-08-21T09:48:52.053Z,100559.97
2022-08-21T09:51:57.019Z,100561.69
2022-08-21T09:54:59.556Z,100558.28
2022-08-21T09:58:02.888Z,100563.53
2022-08-21T10:01:07.826Z,100558.63
2022-08-21T10:04:11.726Z,100565.28
2022-08-21T10:07:16.455Z,100555.13
2022-08-21T10:10:22.922Z,100551.66
2022-08-21T10:13:38.515Z,100549.50
2022-08-21T10:16:51.376Z,100553.88
2022-08-21T10:20:02.133Z,100549.56
2022-08-21T10:23:18.026Z,100551.34
2022-08-21T10:26:30.946Z,100543.91
2022-08-21T10:29:46.951Z,100563.53
2022-08-21T10:33:01.110Z,100566.09
2022-08-21T10:36:18.282Z,100559.81
2022-08-21T10:39:35.603Z,100563.88
2022-08-21T10:42:54.095Z,100567.59
2022-08-21T10:46:09.018Z,100563.22
2022-08-21T10:49:22.718Z,100559.00
2022-08-21T10:52:44.205Z,100553.75
2022-08-21T10:55:56.707Z,100567.41
2022-08-21T10:59:11.599Z,100557.81
2022-08-21T11:02:19.375Z,100556.94
2022-08-21T11:05:29.859Z,100564.59
2022-08-21T11:08:37.476Z,100578.25
2022-08-21T11:11:55.227Z,100570.13
2022-08-21T11:15:29.225Z,100569.56
2022-08-21T11:18:36.290Z,100570.88
2022-08-21T11:21:44.519Z,100574.09
2022-08-21T11:24:52.635Z,100567.78
2022-08-21T11:28:02.544Z,100566.16
2022-08-21T11:31:17.191Z,100567.59
2022-08-21T11:34:34.345Z,100567.94
2022-08-21T11:37:51.062Z,100567.63
2022-08-21T11:41:05.423Z,100566.41
2022-08-21T11:44:17.345Z,100560.19
2022-08-21T11:47:29.633Z,100558.66
2022-08-21T11:50:35.998Z,100562.56
2022-08-21T11:53:46.462Z,100556.44
2022-08-21T11:56:56.093Z,100565.28
2022-08-21T12:00:08.710Z,100561.53
2022-08-21T12:03:15.912Z,100561.53
2022-08-21T12:06:31.998Z,100564.38
2022-08-21T12:09:37.630Z,100562.72
2022-08-21T12:12:42.670Z,100556.78
2022-08-21T12:15:46.501Z,100567.66
2022-08-21T12:18:48.981Z,100563.38
2022-08-21T12:21:54.115Z,100573.81
2022-08-21T12:25:07.993Z,100573.31
2022-08-21T12:28:13.621Z,100574.63
2022-08-21T12:31:23.598Z,100572.06
2022-08-21T12:34:34.151Z,100566.66
2022-08-21T12:37:41.505Z,100576.38
2022-08-21T12:40:49.257Z,100578.22
2022-08-21T12:43:59.055Z,100578.38
2022-08-21T12:47:06.081Z,100561.16
2022-08-21T12:50:13.214Z,100567.88
2022-08-21T12:53:27.817Z,100564.59
2022-08-21T12:56:32.671Z,100562.44
2022-08-21T12:59:40.188Z,100565.59
2022-08-21T13:02:50.192Z,100556.13
2022-08-21T13:05:54.663Z,100552.13
2022-08-21T13:09:01.157Z,100551.34
2022-08-21T13:12:04.050Z,100554.56
2022-08-21T13:15:09.390Z,100549.09
2022-08-21T13:18:23.506Z,100556.66
2022-08-21T13:21:31.775Z,100555.78
2022-08-21T13:24:42.712Z,100562.25
2022-08-21T13:27:57.975Z,100561.53
2022-08-21T13:31:02.552Z,100559.78
2022-08-21T13:34:09.558Z,100558.13
2022-08-21T13:37:16.386Z,100561.00
2022-08-21T13:40:26.145Z,100556.16
2022-08-21T13:43:32.445Z,100553.16
2022-08-21T13:46:37.620Z,100565.69
2022-08-21T13:49:44.590Z,100569.19
2022-08-21T13:52:56.769Z,100568.72
2022-08-21T13:56:01.179Z,100562.78
2022-08-21T13:59:04.971Z,100559.06
2022-08-21T14:02:15.015Z,100570.59
2022-08-21T14:05:23.630Z,100569.44
2022-08-21T14:08:31.564Z,100563.00
2022-08-21T14:11:36.611Z,100561.97
2022-08-21T14:14:41.107Z,100556.66
2022-08-21T14:17:44.058Z,100570.56
2022-08-21T14:20:47.957Z,100568.03
2022-08-21T14:24:01.628Z,100572.81
2022-08-21T14:27:07.683Z,100561.03
2022-08-21T14:30:14.238Z,100566.63
2022-08-21T14:33:22.466Z,100557.53
2022-08-21T14:36:26.267Z,100560.97
2022-08-21T14:39:28.743Z,100552.63
2022-08-21T14:42:31.497Z,100545.97
2022-08-21T14:45:34.035Z,100548.19
2022-08-21T14:48:36.766Z,100544.84
2022-08-21T14:51:53.818Z,100537.16
2022-08-21T14:54:57.127Z,100544.56
2022-08-21T14:57:59.773Z,100529.78
2022-08-21T15:01:04.778Z,100539.06
2022-08-21T15:04:07.336Z,100533.44
2022-08-21T15:07:11.169Z,100527.25
2022-08-21T15:10:14.338Z,100537.34
2022-08-21T15:13:17.017Z,100528.28
2022-08-21T15:16:19.496Z,100538.00
2022-08-21T15:19:22.002Z,100532.09
2022-08-21T15:22:28.061Z,100523.00
2022-08-21T15:25:33.147Z,100536.72
2022-08-21T15:28:37.733Z,100522.34
2022-08-21T15:31:55.124Z,100520.81
2022-08-21T15:34:58.973Z,100519.63
2022-08-21T15:38:03.100Z,100509.56
2022-08-21T15:41:06.727Z,100521.03
2022-08-21T15:44:12.611Z,100519.69
2022-08-21T15:47:18.305Z,100517.25
2022-08-21T15:50:21.792Z,100516.56
2022-08-21T15:53:25.599Z,100513.44
2022-08-21T15:56:35.535Z,100514.56
2022-08-21T15:59:42.775Z,100516.56
2022-08-21T16:02:48.174Z,100517.88
2022-08-21T16:05:53.243Z,100519.28
2022-08-21T16:08:57.038Z,100516.66
2022-08-21T16:12:00.591Z,100516.41
2022-08-21T16:15:04.938Z,100504.78
2022-08-21T16:18:07.777Z,100507.66
2022-08-21T16:21:10.262Z,100502.56
2022-08-21T16:24:14.054Z,100516.00
2022-08-21T16:27:17.590Z,100511.22
2022-08-21T16:30:21.862Z,100511.56
2022-08-21T16:33:31.294Z,100501.00
2022-08-21T16:36:35.816Z,100502.13
2022-08-21T16:39:39.886Z,100507.84
2022-08-21T16:42:43.782Z,100511.66
2022-08-21T16:45:48.871Z,100513.84
2022-08-21T16:48:55.159Z,100508.19
2022-08-21T16:51:57.683Z,100511.53
2022-08-21T16:55:02.538Z,100506.09
2022-08-21T16:58:10.431Z,100504.97
2022-08-21T17:01:16.036Z,100501.66
2022-08-21T17:04:18.629Z,100513.75
2022-08-21T17:07:21.127Z,100507.72
2022-08-21T17:10:24.915Z,100506.19
2022-08-21T17:13:27.880Z,100501.88
2022-08-21T17:16:30.909Z,100504.81
2022-08-21T17:19:34.503Z,100507.41
2022-08-21T17:22:37.027Z,100512.72
2022-08-21T17:25:44.463Z,100508.88
2022-08-21T17:28:50.909Z,100520.50
2022-08-21T17:31:55.718Z,100519.63
2022-08-21T17:34:58.376Z,100518.19
2022-08-21T17:38:00.943Z,100522.94
2022-08-21T17:41:06.280Z,100520.13
2022-08-21T17:44:15.344Z,100522.91
2022-08-21T17:47:20.703Z,100522.31
2022-08-21T17:50:23.370Z,100519.66
2022-08-21T17:53:25.984Z,100509.09
2022-08-21T17:56:32.619Z,100509.84
2022-08-21T17:59:35.666Z,100510.59
2022-08-21T18:02:38.855Z,100512.13
2022-08-21T18:05:41.844Z,100514.34
2022-08-21T18:08:44.307Z,100514.72
2022-08-21T18:11:48.120Z,100524.75
2022-08-21T18:14:51.251Z,100520.56
2022-08-21T18:17:54.183Z,100526.22
2022-08-21T18:20:58.031Z,100526.78
2022-08-21T18:24:00.529Z,100530.91
2022-08-21T18:27:06.424Z,100534.09
2022-08-21T18:30:11.182Z,100532.03
2022-08-21T18:33:15.100Z,100531.25
2022-08-21T18:36:17.555Z,100524.06
2022-08-21T18:39:35.841Z,100538.75
2022-08-21T18:42:51.502Z,100541.88
2022-08-21T18:45:58.543Z,100541.38
2022-08-21T18:49:01.110Z,100533.16
2022-08-21T18:52:05.618Z,100536.00
2022-08-21T18:55:13.427Z,100538.72
2022-08-21T18:58:19.034Z,100532.22
2022-08-21T19:01:21.641Z,100531.53
2022-08-21T19:04:43.761Z,100534.44
2022-08-21T19:07:47.320Z,100539.56
2022-08-21T19:10:52.136Z,100536.06
2022-08-21T19:13:56.819Z,100543.41
2022-08-21T19:16:59.641Z,100534.78
2022-08-21T19:20:07.094Z,100540.72
2022-08-21T19:23:11.417Z,100534.50
2022-08-21T19:26:13.949Z,100538.97
2022-08-21T19:29:20.290Z,100538.63
2022-08-21T19:32:39.583Z,100540.94
2022-08-21T19:35:45.610Z,100541.13
2022-08-21T19:38:53.563Z,100538.94
2022-08-21T19:41:58.515Z,100546.47
2022-08-21T19:45:02.875Z,100548.50
2022-08-21T19:48:06.376Z,100545.50
2022-08-21T19:51:08.972Z,100536.41
2022-08-21T19:54:17.344Z,100535.78
2022-08-21T19:57:20.106Z,100537.88
2022-08-21T20:00:24.326Z,100544.47
2022-08-21T20:03:27.033Z,100542.50
2022-08-21T20:06:29.521Z,100545.19
2022-08-21T20:09:32.722Z,100538.47
2022-08-21T20:12:37.046Z,100543.72
2022-08-21T20:15:41.054Z,100542.31
2022-08-21T20:18:44.039Z,100538.03
2022-08-21T20:21:46.823Z,100542.50
2022-08-21T20:24:49.622Z,100540.28
2022-08-21T20:27:52.209Z,100545.00
2022-08-21T20:30:56.519Z,100545.88
2022-08-21T20:33:59.746Z,100545.56
2022-08-21T20:37:02.893Z,100539.72
2022-08-21T20:40:11.571Z,100547.28
2022-08-21T20:43:35.376Z,100547.09
2022-08-21T20:46:39.290Z,100544.31
2022-08-21T20:49:46.166Z,100543.25
2022-08-21T20:52:51.791Z,100548.16
2022-08-21T20:55:56.521Z,100560.38
2022-08-21T20:59:17.133Z,100561.22
2022-08-21T21:02:32.885Z,100553.69
2022-08-21T21:05:41.619Z,100561.22
2022-08-21T21:08:48.977Z,100554.88
2022-08-21T21:11:58.200Z,100562.31
2022-08-21T21:15:05.923Z,100563.25
2022-08-21T21:18:14.312Z,100561.06
2022-08-21T21:21:22.698Z,100565.91
2022-08-21T21:24:35.382Z,100566.41
2022-08-21T21:27:43.574Z,100568.34
2022-08-21T21:30:51.964Z,100571.53
2022-08-21T21:34:01.813Z,100569.00
2022-08-21T21:37:07.959Z,100568.69
2022-08-21T21:40:29.336Z,100564.25
2022-08-21T21:43:48.742Z,100568.31
2022-08-21T21:47:01.765Z,100568.94
2022-08-21T21:50:20.762Z,100567.63
2022-08-21T21:53:50.612Z,100571.78
2022-08-21T21:57:04.214Z,100572.91
2022-08-21T22:00:12.452Z,100569.84
2022-08-21T22:03:22.835Z,100573.84
2022-08-21T22:06:35.763Z,100574.81
2022-08-21T22:09:44.880Z,100577.25
2022-08-21T22:12:58.633Z,100576.41
2022-08-21T22:16:13.041Z,100575.66
2022-08-21T22:19:20.848Z,100578.22
2022-08-21T22:22:27.660Z,100576.81
2022-08-21T22:25:35.313Z,100578.25
2022-08-21T22:28:41.671Z,100573.03
2022-08-21T22:31:44.677Z,100587.16
2022-08-21T22:35:02.005Z,100576.53
2022-08-21T22:38:18.324Z,100574.38
2022-08-21T22:41:27.821Z,100574.09
2022-08-21T22:44:30.711Z,100577.31
2022-08-21T22:47:38.276Z,100580.31
2022-08-21T22:50:41.496Z,100576.66
2022-08-21T22:53:54.667Z,100579.34
2022-08-21T22:57:02.646Z,100587.13
2022-08-21T23:00:11.095Z,100580.31
2022-08-21T23:03:24.692Z,100580.31
2022-08-21T23:06:32.305Z,100582.94
2022-08-21T23:09:39.219Z,100586.19
2022-08-21T23:12:43.861Z,100583.63
2022-08-21T23:15:59.967Z,100584.47
2022-08-21T23:19:12.920Z,100580.94
2022-08-21T23:22:35.922Z,100592.31
2022-08-21T23:26:00.141Z,100590.69
2022-08-21T23:29:24.784Z,100621.84
2022-08-21T23:32:52.402Z,100587.44
2022-08-21T23:36:22.440Z,100614.09
2022-08-21T23:39:40.203Z,100589.06
2022-08-21T23:43:07.335Z,100589.38
2022-08-21T23:46:34.268Z,100625.34
2022-08-21T23:49:49.328Z,100581.59
2022-08-21T23:53:15.838Z,100590.13
2022-08-21T23:56:29.540Z,100590.59
2022-08-21T23:59:44.331Z,100594.88
